Lake Levels
Share |
Lake Levels   »   United States   »   Texas
LAKES RIVERS MARINAS NEWS HOUSES EVENTS MAPS
1,654 Lakes:
Lake Store

Lake Levels in Texas, United States

LakeLevels.info is a national information and alert service for lake water levels in the United States. With a FREE member account you can receive water level alerts by email when the water level reaches your desired alert level.


We currently offer Lake Level information and alerts for 102 lakes and serve 13,486 members with 32,247 alerts.


Sign-up for a Lake Level Alert




Filter By State:
Lake Name Current
Level
Full Pool +/-
Full Pool
Reading
Date - Time
Alan Henry (TX) 2,218.36 2,224.00 -5.64 6/27/2016  8:30 AM
Amistad (TX) 1,092.66 1,117.00 -24.34 6/27/2016  6:15 AM
Amon Carter (TX) 921.13 920.00 1.13 6/27/2016  6:00 AM
Aquilla (TX) 542.98 537.50 5.48 6/27/2016  7:30 AM
Arlington (TX) 548.78 550.00 -1.22 6/27/2016  12:00 AM
Arrowhead (TX) 925.62 926.00 -0.38 6/27/2016  12:00 AM
Athens (TX) 440.19 440.00 0.19 6/27/2016  4:30 AM
Austin (TX) 491.89 492.80 -0.91 6/25/2016  11:20 AM
Bardwell (TX) 424.70 421.00 3.70 6/27/2016  8:30 AM
Belton (TX) 619.38 594.00 25.38 6/27/2016  7:00 AM
Benbrook (TX) 696.20 694.00 2.20 6/27/2016  8:00 AM
Bob Sandlin (TX) 337.86 337.50 0.36 6/26/2016  9:58 AM
Bonham (TX) 564.66 565.00 -0.34 6/27/2016  2:00 AM
Brady Creek (TX) 1,734.90 1,743.00 -8.10 6/27/2016  8:45 AM
Bridgeport (TX) 836.66 836.00 0.66 6/27/2016  8:00 AM
Brownwood (TX) 1,424.69 1,425.00 -0.31 6/27/2016  8:30 AM
Buchanan (TX) 1,018.04 1,020.50 -2.46 6/25/2016  11:20 AM
Buffalo Creek (TX) 1,046.24 1,049.00 -2.76 6/27/2016  12:00 AM
Caddo (LA TX) 169.90 168.50 1.40 6/27/2016  8:00 AM
Canyon (TX) 910.82 909.00 1.82 6/27/2016  3:15 AM
Cedar Creek (TX) 321.88 322.00 -0.12 6/27/2016  7:45 AM
Champion Creek (TX) 2,054.22 2,083.00 -28.78 6/26/2016  9:07 AM
Cherokee (TX) 280.25 280.00 0.25 6/27/2016  6:45 AM
Choke Canyon (TX) 199.23 220.50 -21.27 6/27/2016  7:30 AM
Cisco (TX) 1,522.13 1,520.00 2.13 6/27/2016  1:30 PM
Coleman (TX) 1,717.38 1,718.00 -0.62 6/27/2016  8:30 AM
Coleto Creek (TX) 98.15 98.28 -0.13 6/27/2016  7:00 AM
Colorado City (TX) 2,049.59 2,070.20 -20.61 6/26/2016  9:07 AM
Conroe (TX) 200.87 201.00 -0.13 6/27/2016  7:45 AM
Corpus Christi (TX) 89.93 94.00 -4.07 6/27/2016  8:50 AM
E. V. Spence (TX) 1,844.25 1,898.00 -53.75 6/27/2016  8:00 AM
Eagle Mountain (TX) 649.46 649.00 0.46 6/27/2016  7:00 AM
Falcon (TX) 274.36 301.20 -26.84 6/13/2016  10:25 AM
Fork (TX) 402.78 403.00 -0.22 6/27/2016  7:30 AM
Georgetown (TX) 795.27 791.00 4.27 6/27/2016  8:00 AM
Graham (TX) 1,074.87 1,075.00 -0.13 6/27/2016  8:00 AM
Granbury (TX) 692.69 693.00 -0.31 6/27/2016  7:30 AM
Granger (TX) 508.07 504.00 4.07 6/27/2016  8:00 AM
Grapevine (TX) 546.89 535.00 11.89 6/27/2016  8:45 AM
Hords Creek (TX) 1,899.13 1,900.00 -0.87 6/27/2016  1:30 AM
Houston (TX) 42.56 41.70 0.86 6/27/2016  8:30 AM
Hubbard Creek (TX) 1,182.72 1,183.00 -0.28 6/27/2016  7:15 AM
Hubert M Moss (TX) 714.70 715.00 -0.30 6/27/2016  12:15 AM
Inks (TX) 887.32 886.90 0.42 6/27/2016  6:00 AM
Jacksonville (TX) 422.11 422.00 0.11 6/26/2016  9:58 AM
JB Thomas (TX) 2,247.77 2,258.00 -10.23 6/27/2016  8:45 AM
Jim Chapman (TX) 440.05 440.00 0.05 6/26/2016  9:58 AM
Joe Pool (TX) 523.67 522.00 1.67 6/27/2016  8:00 AM
Lake O' the Pines (TX) 232.83 228.50 4.33 6/26/2016  9:58 AM
Lavon (TX) 494.85 492.00 2.85 6/27/2016  7:00 AM
Leon (TX) 1,374.75 6/27/2016  6:45 AM
Lewisville (TX) 525.57 522.00 3.57 6/27/2016  8:30 AM
Limestone (TX) 363.02 363.00 0.02 6/27/2016  6:45 AM
Livingston (TX) 132.63 131.00 1.63 6/27/2016  8:31 AM
Lyndon B. Johnson (TX) 824.74 825.00 -0.26 6/25/2016  11:20 AM
MacKenzie (TX) 3,027.36 3,100.00 -72.64 6/27/2016  8:30 AM
Marble Falls (TX) 736.46 737.00 -0.54 6/25/2016  11:20 AM
Martin Creek (TX) 305.81 306.00 -0.19 6/27/2016  1:30 AM
Medina (TX) 1,064.59 1,062.00 2.59 6/27/2016  8:00 AM
Meredith (TX) 2,878.56 2,941.00 -62.44 6/27/2016  7:30 AM
Mexia (TX) 448.30 448.30 -0.00 6/27/2016  5:15 AM
Millers Creek (TX) 1,333.90 1,334.00 -0.10 6/27/2016  8:00 AM
Mineral Wells (TX) 863.68 863.00 0.68 6/27/2016  4:30 AM
Moss Creek (TX) 2,331.38 2,337.00 -5.62 6/27/2016  6:30 AM
Murvaul (TX) 265.22 265.50 -0.28 6/26/2016  9:58 AM
Nacogdoches (TX) 275.25 279.00 -3.75 6/26/2016  9:58 AM
Natural Dam Salt (TX) 2,447.33 2,457.00 -9.67 6/26/2016  9:07 AM
Navarro Mills (TX) 433.81 424.50 9.31 6/27/2016  8:00 AM
Nocona (TX) 827.66 827.00 0.66 6/27/2016  12:00 AM
O. C. Fisher (TX) 1,876.45 1,908.00 -31.55 6/27/2016  8:00 AM
O.H. Ivie (TX) 1,517.84 1,551.50 -33.66 6/27/2016  7:15 AM
Oak Creek (TX) 1,989.46 2,000.00 -10.54 6/27/2016  12:00 AM
Palestine (TX) 345.08 345.00 0.08 6/26/2016  9:58 AM
Palo Pinto (TX) 867.04 867.00 0.04 6/27/2016  12:15 AM
Pat Cleburne (TX) 733.59 733.60 -0.01 6/27/2016  8:00 AM
Pat Mayse (TX) 451.50 451.00 0.50 6/26/2016  9:58 AM
Phantom Hill (TX) 1,636.04 1,635.90 0.14 6/27/2016  12:00 AM
Possum Kingdom (TX) 999.10 1,000.00 -0.90 6/26/2016  9:02 AM
Proctor (TX) 1,175.22 1,162.00 13.22 6/27/2016  8:30 AM
Ray Hubbard (TX) 435.60 435.50 0.10 6/27/2016  8:30 AM
Ray Roberts (TX) 635.87 632.50 3.37 6/27/2016  8:30 AM
Red Bluff (TX) 2,824.48 2,827.13 -2.65 6/26/2016  9:07 AM
Richland Chambers (TX) 315.13 315.00 0.13 6/26/2016  9:02 AM
Sam Rayburn (TX) 167.11 164.40 2.71 6/27/2016  8:00 AM
Somerville (TX) 255.47 238.00 17.47 6/27/2016  8:00 AM
Squaw Creek (TX) 775.36 775.00 0.36 6/27/2016  12:00 AM
Stamford (TX) 1,416.78 1,417.00 -0.22 6/27/2016  7:30 AM
Steinhagen Reservoir (TX) 82.71 82.40 0.31 6/27/2016  12:00 AM
Stillhouse Hollow (TX) 635.42 622.00 13.42 6/27/2016  8:00 AM
Tawakoni (TX) 438.15 437.50 0.65 6/27/2016  7:30 AM
Texana (TX) 43.94 44.00 -0.06 6/27/2016  2:00 AM
Texoma (TX) 619.91 617.00 2.91 6/27/2016  8:00 AM
Toledo Bend (TX LA) 172.20 172.00 0.20 6/27/2016  6:30 AM
Travis (TX) 681.12 681.00 0.12 6/27/2016  7:00 AM
Twin Buttes (TX) 1,902.57 1,940.00 -37.43 6/27/2016  12:00 AM
Tyler (TX) 375.31 375.50 -0.19 6/26/2016  9:58 AM
Waco (TX) 475.30 462.00 13.30 6/27/2016  8:15 AM
Waxahachie (TX) 531.82 6/27/2016  12:00 AM
White River (TX) 2,354.86 6/27/2016  8:15 AM
Whitney (TX) 546.62 533.00 13.62 6/27/2016  8:15 AM
Worth (TX) 593.99 594.00 -0.01 6/27/2016  6:00 AM
Wright Patman (TX) 248.21 220.60 27.61 6/26/2016  9:58 AM


CURRENT DAILY STREAMFLOW CONDITIONS
High
90th percentile
75th - 89th percentile
25th - 74th percentile
10th - 24th percentile
10th percentile
Low
Not ranked

The colored dots on this map depict streamflow conditions as a percentile, which is computed from the period of record for the current day of the year. Only stations with at least 30 years of record are used. The gray circles indicate other stations that were not ranked in percentiles either because they have fewer than 30 years of record or because they report parameters other than streamflow. Some stations, for example, measure stage only.
TX Daily Streamflow Conditions



U.S. Drought Monitor